Terminal Aerodrome Forecast
Issued by NWS

Home | Current Version | Previous Version | Text Only | Print | Product List | Glossary On
Versions: 1 2 3 4 5 6 7 8 9 10 11 12 13 14 15 16 17 18
957
FTUS42 KTBW 210809 AAA
TAFPGD
TAF AMD
KPGD 210809Z 2108/2206 16004KT 3SM BR SCT010 BKN250
      TEMPO 2108/2112 1/2SM FG BKN008
     FM211400 17006KT P6SM FEW010 SCT250
     FM211600 18011KT P6SM FEW020 SCT250
     FM211800 20014G20KT P6SM SCT030 BKN250
     FM220000 20012KT P6SM BKN250=

USA.gov is the U.S. government's official web portal to all federal, state and local government web resources and services.